Time;durP1;ratioP1;P1;durP2;ratioP2;P2;SDS_P1;SDS_P2;PMS_P1;PMS_P2;Temp;Humidity;BMP_temperature;BMP_pressure;BME280_temperature;BME280_humidity;BME280_pressure;Samples;Min_cycle;Max_cycle;Signal;HPM_P1;HPM_P2
2022/05/05 00:00:55;;;;;;;10.32;9.25;;;21.90;76.50;;;;;;5926240;29;87611;-69
2022/05/05 00:03:57;;;;;;;10.30;9.30;;;21.90;76.50;;;;;;5916835;29;89529;-68
2022/05/05 00:07:01;;;;;;;11.18;10.07;;;21.90;76.50;;;;;;5914971;29;88019;-69
2022/05/05 00:14:23;;;;;;;10.48;9.48;;;21.90;76.50;;;;;;5914184;29;88961;-69
2022/05/05 00:16:45;;;;;;;10.68;9.68;;;21.90;76.40;;;;;;5922347;29;87262;-67
2022/05/05 00:19:47;;;;;;;11.32;10.23;;;21.90;76.50;;;;;;5917960;29;89184;-70
2022/05/05 00:22:51;;;;;;;11.02;9.90;;;21.90;76.50;;;;;;5913829;29;89093;-69
2022/05/05 00:25:53;;;;;;;10.82;9.82;;;21.90;76.40;;;;;;5907968;29;89159;-69
2022/05/05 00:28:54;;;;;;;11.40;10.30;;;21.90;76.50;;;;;;5913138;29;87999;-69
2022/05/05 00:31:56;;;;;;;11.00;9.93;;;21.90;76.40;;;;;;5924388;29;88400;-69
2022/05/05 00:34:58;;;;;;;10.73;9.63;;;21.90;76.50;;;;;;5925268;29;89126;-67
2022/05/05 00:38:03;;;;;;;11.75;10.57;;;21.90;76.50;;;;;;5913561;29;89067;-69
2022/05/05 00:41:05;;;;;;;11.52;10.43;;;22.00;76.60;;;;;;5901310;29;90155;-69
2022/05/05 00:44:08;;;;;;;11.63;10.48;;;22.00;76.50;;;;;;5901247;29;89443;-68
2022/05/05 00:47:16;;;;;;;11.00;9.90;;;22.00;76.60;;;;;;5909662;29;88099;-69
2022/05/05 00:50:20;;;;;;;11.48;10.38;;;21.90;76.40;;;;;;5912882;29;89055;-68
2022/05/05 00:53:24;;;;;;;11.02;9.93;;;21.90;76.40;;;;;;5912141;29;89048;-69
2022/05/05 00:56:26;;;;;;;10.73;9.73;;;22.00;76.50;;;;;;5926566;29;89071;-69
2022/05/05 00:59:29;;;;;;;10.80;9.80;;;22.00;76.50;;;;;;5925003;29;89106;-69
2022/05/05 01:02:33;;;;;;;10.40;9.40;;;21.90;76.40;;;;;;5914767;29;88271;-67
2022/05/05 01:05:37;;;;;;;10.93;9.82;;;21.90;76.40;;;;;;5914457;29;89539;-69
2022/05/05 01:08:41;;;;;;;10.80;9.80;;;21.90;76.50;;;;;;5910221;29;89072;-69
2022/05/05 01:11:43;;;;;;;10.57;9.57;;;21.90;76.60;;;;;;5924141;29;89203;-69
2022/05/05 01:14:45;;;;;;;10.70;9.70;;;21.90;76.50;;;;;;5912500;29;88080;-69
2022/05/05 01:17:47;;;;;;;10.98;9.88;;;21.90;76.50;;;;;;5919900;29;89028;-69
2022/05/05 01:20:52;;;;;;;11.02;9.95;;;21.90;76.50;;;;;;5914011;29;89147;-69
2022/05/05 01:23:56;;;;;;;10.68;9.63;;;21.90;76.60;;;;;;5914466;29;89112;-69
2022/05/05 01:30:17;;;;;;;10.43;9.43;;;21.90;76.60;;;;;;5914844;29;88266;-69
2022/05/05 01:33:21;;;;;;;10.85;9.75;;;21.90;76.50;;;;;;5913471;29;88220;-69
2022/05/05 01:36:23;;;;;;;11.38;10.18;;;21.90;76.40;;;;;;5917333;29;87781;-69
2022/05/05 01:39:26;;;;;;;10.80;9.77;;;22.00;76.60;;;;;;5917781;29;88034;-69
2022/05/05 01:42:28;;;;;;;11.18;10.07;;;21.90;76.40;;;;;;5905354;29;89993;-69
2022/05/05 01:45:30;;;;;;;9.77;8.88;;;21.90;76.40;;;;;;5905072;29;89117;-68
2022/05/05 01:48:32;;;;;;;10.13;9.13;;;21.90;76.40;;;;;;5917437;29;89094;-69
2022/05/05 01:51:34;;;;;;;10.40;9.40;;;21.90;76.40;;;;;;5917156;29;89097;-68
2022/05/05 01:54:38;;;;;;;10.38;9.38;;;21.90;76.50;;;;;;5916924;29;88896;-69
2022/05/05 01:57:40;;;;;;;10.15;9.15;;;21.90;76.50;;;;;;5932335;29;89456;-68
2022/05/05 02:00:43;;;;;;;10.07;9.07;;;21.90;76.50;;;;;;5918048;29;89413;-69
2022/05/05 02:03:45;;;;;;;10.25;9.25;;;21.90;76.40;;;;;;5916741;29;87262;-69
2022/05/05 02:06:46;;;;;;;10.40;9.30;;;21.90;76.60;;;;;;5916085;29;89328;-69
2022/05/05 02:09:50;;;;;;;10.40;9.40;;;21.90;77.40;;;;;;5923648;29;89081;-69
2022/05/05 02:13:11;;;;;;;9.80;8.80;;;21.90;76.40;;;;;;5916778;29;90051;-69
2022/05/05 02:16:13;;;;;;;9.57;8.68;;;21.90;76.50;;;;;;5921642;29;89093;-69
2022/05/05 02:19:14;;;;;;;10.45;9.45;;;21.90;76.50;;;;;;5915539;29;89097;-68
2022/05/05 02:22:16;;;;;;;10.45;9.45;;;21.90;76.50;;;;;;5919151;29;89093;-69
2022/05/05 02:25:20;;;;;;;9.45;8.55;;;21.90;76.50;;;;;;5927307;29;89025;-70
2022/05/05 02:28:22;;;;;;;9.68;8.70;;;21.90;76.50;;;;;;5927472;29;89125;-69
2022/05/05 02:31:25;;;;;;;9.65;8.63;;;21.90;76.50;;;;;;5914800;29;88057;-68
2022/05/05 02:34:27;;;;;;;9.02;8.23;;;21.90;76.40;;;;;;5927895;29;87268;-69
2022/05/05 02:40:49;;;;;;;10.05;8.63;;;21.90;76.50;;;;;;5915860;29;87374;-69
2022/05/05 02:44:10;;;;;;;9.50;8.60;;;21.90;76.50;;;;;;5922792;29;90008;-70
2022/05/05 02:47:12;;;;;;;9.70;8.80;;;21.90;76.40;;;;;;5940479;29;87972;-69
2022/05/05 02:50:14;;;;;;;9.02;8.23;;;21.90;76.50;;;;;;5925005;29;89075;-70
2022/05/05 02:56:37;;;;;;;9.48;8.57;;;21.90;76.50;;;;;;5915465;29;87303;-70
2022/05/05 02:59:39;;;;;;;9.00;8.10;;;21.90;76.50;;;;;;5916421;29;89211;-69
2022/05/05 03:02:43;;;;;;;9.30;8.50;;;21.90;76.50;;;;;;5927189;29;89065;-69
2022/05/05 03:05:45;;;;;;;8.65;7.82;;;21.90;76.60;;;;;;5905212;29;88570;-70
2022/05/05 03:08:47;;;;;;;8.55;7.72;;;21.90;76.60;;;;;;5904190;29;89123;-69
2022/05/05 03:11:51;;;;;;;9.20;8.32;;;21.90;76.50;;;;;;5921863;29;88540;-69
2022/05/05 03:14:53;;;;;;;8.63;7.82;;;21.90;76.50;;;;;;5920924;29;90000;-69
2022/05/05 03:17:55;;;;;;;8.82;8.02;;;21.90;76.50;;;;;;5927739;29;89177;-68
2022/05/05 03:20:57;;;;;;;8.60;7.80;;;21.90;76.80;;;;;;5923290;29;89357;-69
2022/05/05 03:23:59;;;;;;;7.93;7.18;;;21.90;76.40;;;;;;5909544;29;89138;-68
2022/05/05 03:27:04;;;;;;;8.35;7.55;;;21.90;76.60;;;;;;5926053;29;89112;-69
2022/05/05 03:30:07;;;;;;;8.23;7.50;;;21.90;76.40;;;;;;5925914;29;89152;-69
2022/05/05 03:33:09;;;;;;;7.97;7.28;;;21.80;76.40;;;;;;5926109;29;89297;-68
2022/05/05 03:36:11;;;;;;;7.95;7.18;;;21.90;76.50;;;;;;5914537;29;88496;-69
2022/05/05 03:39:13;;;;;;;8.05;7.30;;;21.90;76.50;;;;;;5914721;29;89280;-69
2022/05/05 03:42:17;;;;;;;7.88;7.18;;;21.90;76.50;;;;;;5925666;29;89298;-69
2022/05/05 03:45:19;;;;;;;8.60;7.70;;;21.90;76.50;;;;;;5916625;29;90262;-68
2022/05/05 03:48:21;;;;;;;7.97;7.18;;;21.90;76.60;;;;;;5915545;29;89104;-69
2022/05/05 03:51:23;;;;;;;7.93;7.15;;;21.90;76.50;;;;;;5923448;29;88058;-68
2022/05/05 03:54:26;;;;;;;7.70;7.00;;;21.90;76.60;;;;;;5920507;29;89342;-69
2022/05/05 03:57:29;;;;;;;7.20;6.55;;;21.90;76.60;;;;;;5903992;29;89227;-70
2022/05/05 04:00:31;;;;;;;7.90;7.20;;;21.80;76.50;;;;;;5914076;29;89176;-68
2022/05/05 04:03:34;;;;;;;7.10;6.40;;;21.90;76.60;;;;;;5914911;29;89042;-68
2022/05/05 04:06:36;;;;;;;7.43;6.72;;;21.90;76.50;;;;;;5924465;29;88546;-69
2022/05/05 04:09:38;;;;;;;7.22;6.45;;;21.80;76.50;;;;;;5917742;29;89080;-69
2022/05/05 04:12:41;;;;;;;6.90;6.30;;;21.90;76.50;;;;;;5914719;29;89174;-68
2022/05/05 04:15:43;;;;;;;7.47;6.78;;;21.80;76.50;;;;;;5919868;29;90118;-69
2022/05/05 04:18:45;;;;;;;6.97;6.38;;;21.90;76.50;;;;;;5909623;29;89125;-68
2022/05/05 04:21:47;;;;;;;6.72;6.05;;;21.80;76.40;;;;;;5914486;29;89261;-69
2022/05/05 04:24:49;;;;;;;6.80;6.20;;;21.90;76.60;;;;;;5904267;29;88335;-69
2022/05/05 04:27:52;;;;;;;7.30;6.60;;;21.90;76.40;;;;;;5924659;29;88122;-69
2022/05/05 04:34:14;;;;;;;6.80;6.20;;;21.90;76.60;;;;;;5915097;29;87400;-68
2022/05/05 04:37:16;;;;;;;6.68;6.07;;;21.90;76.60;;;;;;5914988;29;88394;-69
2022/05/05 04:40:18;;;;;;;7.50;6.80;;;21.90;76.50;;;;;;5924174;29;89003;-69
2022/05/05 04:43:21;;;;;;;7.50;6.80;;;21.90;76.60;;;;;;5917207;29;89067;-69
2022/05/05 04:46:23;;;;;;;6.50;5.90;;;21.90;76.60;;;;;;5902116;29;90073;-68
2022/05/05 04:49:25;;;;;;;6.43;5.82;;;21.90;76.60;;;;;;5914612;29;89196;-69
2022/05/05 04:52:27;;;;;;;6.88;6.28;;;21.80;76.40;;;;;;5929378;29;89102;-69
2022/05/05 04:55:29;;;;;;;6.60;6.00;;;21.80;77.40;;;;;;5915378;29;88078;-69
2022/05/05 04:58:34;;;;;;;6.57;5.97;;;21.90;76.50;;;;;;5923340;29;89094;-68
2022/05/05 05:01:36;;;;;;;6.40;5.80;;;21.90;76.60;;;;;;5912742;29;89105;-68
2022/05/05 05:04:38;;;;;;;6.20;5.60;;;21.80;76.40;;;;;;5912864;29;89108;-69
2022/05/05 05:07:40;;;;;;;6.25;5.65;;;21.90;76.50;;;;;;5923910;29;88612;-68
2022/05/05 05:10:44;;;;;;;6.03;5.53;;;21.80;76.50;;;;;;5920713;29;89060;-69
2022/05/05 05:13:47;;;;;;;5.90;5.40;;;21.80;76.50;;;;;;5913533;29;89222;-68
2022/05/05 05:16:49;;;;;;;6.15;5.55;;;21.80;76.60;;;;;;5915272;29;90318;-68
2022/05/05 05:19:51;;;;;;;5.85;5.30;;;21.90;76.60;;;;;;5912580;29;88987;-69
2022/05/05 05:22:53;;;;;;;5.90;5.40;;;21.90;77.50;;;;;;5913558;29;89187;-68
2022/05/05 05:25:55;;;;;;;5.70;5.20;;;21.80;76.50;;;;;;5914013;29;89097;-69
2022/05/05 05:28:58;;;;;;;6.45;5.85;;;21.80;76.50;;;;;;5902291;29;89153;-68
2022/05/05 05:32:00;;;;;;;5.72;5.22;;;21.80;76.50;;;;;;5920804;29;89382;-69
2022/05/05 05:35:02;;;;;;;5.70;5.20;;;21.80;76.60;;;;;;5912549;29;89059;-69
2022/05/05 05:38:04;;;;;;;6.03;5.43;;;21.90;76.60;;;;;;5912642;29;88659;-68
2022/05/05 05:41:06;;;;;;;5.25;4.85;;;21.80;76.50;;;;;;5923082;29;89451;-69
2022/05/05 05:44:09;;;;;;;5.60;5.10;;;21.80;76.50;;;;;;5922747;29;89121;-68
2022/05/05 05:47:12;;;;;;;5.50;5.00;;;21.90;76.60;;;;;;5913085;29;88139;-68
2022/05/05 05:50:14;;;;;;;5.90;5.30;;;21.80;76.60;;;;;;5913419;29;89176;-69
2022/05/05 05:53:35;;;;;;;5.60;5.10;;;21.90;76.60;;;;;;5932866;29;90784;-69
2022/05/05 05:56:38;;;;;;;5.50;5.00;;;21.80;76.60;;;;;;5912086;29;89052;-69
2022/05/05 05:59:41;;;;;;;5.50;5.00;;;21.90;76.60;;;;;;5912220;29;89111;-69
2022/05/05 06:06:03;;;;;;;5.25;4.75;;;21.80;76.60;;;;;;5923842;29;87963;-69
2022/05/05 06:09:05;;;;;;;5.05;4.65;;;21.80;76.60;;;;;;5912259;29;88933;-69
2022/05/05 06:12:09;;;;;;;5.22;4.72;;;21.80;76.60;;;;;;5921039;29;89113;-69
2022/05/05 06:15:12;;;;;;;5.25;4.80;;;21.80;76.60;;;;;;5912946;29;89380;-68
2022/05/05 06:18:14;;;;;;;5.35;4.85;;;21.80;76.60;;;;;;5918360;29;89920;-69
2022/05/05 06:21:16;;;;;;;5.13;4.63;;;21.80;76.60;;;;;;5913954;29;89156;-69
2022/05/05 06:24:18;;;;;;;5.00;4.60;;;21.90;76.60;;;;;;5927544;29;89034;-69
2022/05/05 06:27:20;;;;;;;5.20;4.70;;;21.90;76.60;;;;;;5915405;29;89076;-68
2022/05/05 06:30:24;;;;;;;5.00;4.60;;;21.90;76.50;;;;;;5915129;29;89365;-69
2022/05/05 06:33:26;;;;;;;5.35;4.85;;;21.90;76.60;;;;;;5914227;29;89138;-69
2022/05/05 06:36:28;;;;;;;5.57;5.07;;;21.90;76.60;;;;;;5914762;29;89193;-68
2022/05/05 06:39:30;;;;;;;5.57;4.47;;;21.90;76.50;;;;;;5912071;29;88356;-68
2022/05/05 06:42:32;;;;;;;5.30;4.80;;;21.90;76.60;;;;;;5918069;29;89089;-68
2022/05/05 06:45:36;;;;;;;4.95;4.45;;;21.90;76.50;;;;;;5914201;29;89119;-69
2022/05/05 06:48:37;;;;;;;5.03;4.53;;;21.90;76.50;;;;;;5903947;29;88937;-68
2022/05/05 06:51:39;;;;;;;4.68;4.28;;;22.00;76.60;;;;;;5928559;29;89110;-69
2022/05/05 06:54:41;;;;;;;4.88;4.47;;;22.00;76.60;;;;;;5921365;29;89049;-68
2022/05/05 06:57:43;;;;;;;5.07;4.68;;;22.00;76.60;;;;;;5915019;29;89160;-69
2022/05/05 07:07:26;;;;;;;4.60;4.20;;;22.00;76.60;;;;;;5923747;29;87378;-69
2022/05/05 07:13:47;;;;;;;4.57;4.18;;;21.90;76.50;;;;;;5915826;29;87350;-69
2022/05/05 07:16:51;;;;;;;4.78;4.38;;;22.00;76.60;;;;;;5915251;29;89121;-69
2022/05/05 07:19:54;;;;;;;4.75;4.35;;;22.00;76.60;;;;;;5915441;29;90886;-70
2022/05/05 07:22:57;;;;;;;5.00;4.50;;;22.00;76.60;;;;;;5915591;29;88025;-69
2022/05/05 07:25:59;;;;;;;4.30;3.90;;;22.00;76.50;;;;;;5913996;29;89145;-70
2022/05/05 07:29:01;;;;;;;4.30;3.90;;;22.00;76.60;;;;;;5914136;29;89341;-69
2022/05/05 07:32:05;;;;;;;4.30;3.90;;;22.00;76.60;;;;;;5914224;29;89523;-69
2022/05/05 07:35:09;;;;;;;4.32;3.92;;;22.00;76.60;;;;;;5914277;29;89116;-70
2022/05/05 07:38:11;;;;;;;4.40;4.00;;;22.00;76.70;;;;;;5919994;29;88960;-69
2022/05/05 07:41:13;;;;;;;4.35;3.95;;;22.00;76.70;;;;;;5919748;29;88374;-69
2022/05/05 07:44:15;;;;;;;4.50;4.10;;;22.00;76.70;;;;;;5913476;29;89227;-69
2022/05/05 07:47:19;;;;;;;4.05;3.65;;;22.00;76.70;;;;;;5926343;29;89223;-70
2022/05/05 07:50:21;;;;;;;4.22;3.83;;;22.00;76.80;;;;;;5924971;29;90145;-69
2022/05/05 07:53:23;;;;;;;4.30;3.90;;;22.00;76.70;;;;;;5931522;29;89149;-69
2022/05/05 07:56:25;;;;;;;4.00;3.70;;;22.00;76.80;;;;;;5920347;29;89142;-70
2022/05/05 07:59:27;;;;;;;4.28;3.88;;;22.00;76.90;;;;;;5925000;29;89199;-69
2022/05/05 08:02:30;;;;;;;3.88;3.58;;;22.00;76.90;;;;;;5925530;29;89453;-70
2022/05/05 08:05:32;;;;;;;3.80;3.50;;;22.00;76.90;;;;;;5913599;29;89129;-69
2022/05/05 08:08:34;;;;;;;4.28;3.88;;;22.00;76.90;;;;;;5925328;29;89136;-68
2022/05/05 08:11:36;;;;;;;3.80;3.50;;;22.00;76.90;;;;;;5914049;29;90066;-69
2022/05/05 08:14:38;;;;;;;4.05;3.70;;;22.00;76.80;;;;;;5913307;29;89071;-68
2022/05/05 08:17:42;;;;;;;4.22;3.83;;;22.00;76.80;;;;;;5918861;29;89068;-69
2022/05/05 08:20:44;;;;;;;3.88;3.58;;;22.00;76.90;;;;;;5912932;29;88872;-70
2022/05/05 08:23:46;;;;;;;4.22;3.83;;;22.10;77.10;;;;;;5919853;29;89441;-69
2022/05/05 08:30:08;;;;;;;4.03;3.72;;;22.00;77.00;;;;;;5914418;29;87372;-70
2022/05/05 08:33:12;;;;;;;3.60;3.30;;;22.00;77.10;;;;;;5914297;29;89128;-69
2022/05/05 08:36:14;;;;;;;4.10;3.80;;;22.00;77.10;;;;;;5916886;29;89207;-69
2022/05/05 08:39:16;;;;;;;3.90;3.60;;;22.00;77.10;;;;;;5913637;29;89126;-69
2022/05/05 08:42:18;;;;;;;3.90;3.60;;;22.00;77.10;;;;;;5925110;29;88381;-69
2022/05/05 08:45:21;;;;;;;3.70;3.40;;;22.00;77.20;;;;;;5912443;29;89213;-69
2022/05/05 08:48:24;;;;;;;3.92;3.60;;;22.10;77.30;;;;;;5913159;29;89073;-69
2022/05/05 08:51:28;;;;;;;3.50;3.20;;;22.00;77.20;;;;;;5927288;29;89910;-69
2022/05/05 08:54:33;;;;;;;3.60;3.30;;;22.00;77.30;;;;;;5930247;29;89440;-68
2022/05/05 08:57:35;;;;;;;3.78;3.45;;;22.10;77.40;;;;;;5914188;29;89185;-69
2022/05/05 09:00:37;;;;;;;3.70;3.40;;;22.10;77.30;;;;;;5913938;29;89234;-69
2022/05/05 09:03:40;;;;;;;3.70;3.40;;;22.00;77.20;;;;;;5913213;29;90077;-69
2022/05/05 09:06:47;;;;;;;3.75;3.45;;;22.10;77.20;;;;;;5912475;29;89207;-68
2022/05/05 09:09:50;;;;;;;3.38;3.08;;;22.10;77.30;;;;;;5912511;29;89143;-69
2022/05/05 09:12:59;;;;;;;3.63;3.33;;;22.10;77.30;;;;;;5912581;29;88374;-69
2022/05/05 09:16:02;;;;;;;3.55;3.25;;;22.10;77.40;;;;;;5912729;29;89048;-69
2022/05/05 09:19:11;;;;;;;3.80;3.50;;;22.10;77.40;;;;;;5912827;29;89351;-69
2022/05/05 09:22:15;;;;;;;3.60;3.30;;;22.00;77.40;;;;;;5911328;29;90065;-69
2022/05/05 09:25:18;;;;;;;3.55;3.25;;;22.10;77.50;;;;;;5912671;29;87818;-70
2022/05/05 09:28:22;;;;;;;3.42;3.13;;;22.10;77.60;;;;;;5912439;29;89216;-67
2022/05/05 09:31:24;;;;;;;3.38;3.08;;;22.00;77.60;;;;;;5912273;29;89339;-70
2022/05/05 09:34:29;;;;;;;3.53;3.22;;;22.00;77.60;;;;;;5923283;29;89057;-70
2022/05/05 09:37:31;;;;;;;3.53;3.22;;;22.00;77.60;;;;;;5923996;29;89041;-69
2022/05/05 09:40:33;;;;;;;3.40;3.10;;;22.00;77.60;;;;;;5923912;29;89153;-69
2022/05/05 09:43:35;;;;;;;3.47;3.17;;;22.10;77.60;;;;;;5902182;29;88455;-69
2022/05/05 09:46:38;;;;;;;3.80;3.50;;;22.10;77.60;;;;;;5922043;29;89125;-69
2022/05/05 09:49:41;;;;;;;3.55;3.25;;;22.10;77.60;;;;;;5912347;29;89704;-70
2022/05/05 09:59:29;;;;;;;3.17;2.90;;;22.10;77.60;;;;;;5919981;29;87075;-69
2022/05/05 10:05:57;;;;;;;3.38;3.08;;;22.10;77.60;;;;;;5917493;29;87083;-69
2022/05/05 10:09:04;;;;;;;3.38;3.08;;;22.10;77.60;;;;;;5917096;29;89014;-69
2022/05/05 10:12:07;;;;;;;3.03;2.83;;;22.10;77.60;;;;;;5916814;29;89078;-69
2022/05/05 10:15:12;;;;;;;3.20;2.90;;;22.00;77.60;;;;;;5918108;29;88512;-68
2022/05/05 10:18:15;;;;;;;2.83;2.63;;;22.10;77.60;;;;;;5915294;29;89076;-69
2022/05/05 10:21:28;;;;;;;3.45;3.00;;;22.10;77.70;;;;;;5916572;29;89070;-69
2022/05/05 10:24:32;;;;;;;3.00;2.80;;;22.10;77.60;;;;;;5915868;29;90020;-68
2022/05/05 10:27:34;;;;;;;3.00;2.80;;;22.10;77.60;;;;;;5927236;29;89161;-69
2022/05/05 10:30:36;;;;;;;2.85;2.65;;;22.10;77.60;;;;;;5914869;29;89057;-68
2022/05/05 10:34:00;;;;;;;3.03;2.83;;;22.10;77.60;;;;;;5926769;29;89109;-69
2022/05/05 10:37:06;;;;;;;2.88;2.67;;;22.10;77.60;;;;;;5927266;29;89071;-69
2022/05/05 10:40:09;;;;;;;2.92;2.72;;;22.10;77.50;;;;;;5927248;29;89063;-69
2022/05/05 10:43:11;;;;;;;2.90;2.70;;;22.10;77.60;;;;;;5920554;29;89190;-69
2022/05/05 10:46:46;;;;;;;2.88;2.67;;;22.10;77.50;;;;;;5922929;29;90059;-68
2022/05/05 10:49:49;;;;;;;3.40;3.10;;;22.10;77.60;;;;;;5926753;29;89610;-69
2022/05/05 10:52:53;;;;;;;2.97;2.78;;;22.10;77.60;;;;;;5938318;29;89225;-69
2022/05/05 10:55:55;;;;;;;2.90;2.70;;;22.10;77.60;;;;;;5914351;29;90184;-67
2022/05/05 10:59:07;;;;;;;3.30;3.00;;;22.10;77.60;;;;;;5927021;29;89098;-69
2022/05/05 11:02:19;;;;;;;2.65;2.45;;;22.10;77.60;;;;;;5916346;29;89136;-69
2022/05/05 11:05:26;;;;;;;2.92;2.72;;;22.10;77.60;;;;;;5904992;29;87106;-69
2022/05/05 11:08:35;;;;;;;2.90;2.70;;;22.10;77.50;;;;;;5903580;29;89126;-69
2022/05/05 11:11:44;;;;;;;2.72;2.50;;;22.10;77.60;;;;;;5914875;29;89345;-69
2022/05/05 11:21:37;;;;;;;2.60;2.40;;;22.10;77.60;;;;;;5913831;29;87330;-69
2022/05/05 11:24:45;;;;;;;2.67;2.47;;;22.10;77.60;;;;;;5926654;29;89116;-69
2022/05/05 11:27:55;;;;;;;2.60;2.40;;;22.10;77.60;;;;;;5914000;29;90195;-69
2022/05/05 11:30:57;;;;;;;2.50;2.30;;;22.10;77.60;;;;;;5914966;29;89156;-69
2022/05/05 11:34:00;;;;;;;2.60;2.40;;;22.20;77.50;;;;;;5914204;29;89301;-69
2022/05/05 11:37:03;;;;;;;2.53;2.33;;;22.10;77.40;;;;;;5905164;29;89177;-69
2022/05/05 11:40:11;;;;;;;2.70;2.50;;;22.20;77.40;;;;;;5915236;29;88048;-69
2022/05/05 11:46:32;;;;;;;2.75;2.55;;;22.10;77.40;;;;;;5906324;29;87252;-69
2022/05/05 11:49:35;;;;;;;2.75;2.55;;;22.20;77.50;;;;;;5904021;29;88359;-69
2022/05/05 11:52:37;;;;;;;2.40;2.20;;;22.10;77.40;;;;;;5932022;29;89078;-69
2022/05/05 11:55:40;;;;;;;2.65;2.45;;;22.10;77.40;;;;;;5925434;29;88038;-69
2022/05/05 12:02:05;;;;;;;2.60;2.40;;;22.20;77.40;;;;;;5914447;29;87234;-68
2022/05/05 12:05:08;;;;;;;2.58;2.38;;;22.20;77.50;;;;;;5914128;29;89058;-70
2022/05/05 12:08:10;;;;;;;2.58;2.38;;;22.10;77.40;;;;;;5913655;29;89406;-68
2022/05/05 12:11:16;;;;;;;2.55;2.35;;;22.20;77.50;;;;;;5913445;29;89081;-69
2022/05/05 12:14:22;;;;;;;2.50;2.30;;;22.10;77.50;;;;;;5913540;29;88260;-69
2022/05/05 12:17:27;;;;;;;2.40;2.20;;;22.20;77.60;;;;;;5918793;29;87730;-69
2022/05/05 12:20:31;;;;;;;2.65;2.45;;;22.20;77.50;;;;;;5912597;29;88660;-69
2022/05/05 12:23:39;;;;;;;2.40;2.20;;;22.20;77.50;;;;;;5913354;29;89081;-68
2022/05/05 12:26:43;;;;;;;2.60;2.40;;;22.20;78.30;;;;;;5913464;29;89135;-69
2022/05/05 12:29:46;;;;;;;2.50;2.30;;;22.20;77.40;;;;;;5923336;29;89059;-69
2022/05/05 12:32:53;;;;;;;2.30;2.10;;;22.20;77.40;;;;;;5923770;29;89370;-69
2022/05/05 12:35:55;;;;;;;2.30;2.10;;;22.10;77.40;;;;;;5914731;29;89073;-68
2022/05/05 12:39:11;;;;;;;2.38;2.17;;;22.10;77.40;;;;;;5913914;29;89153;-67
2022/05/05 12:42:14;;;;;;;2.50;2.30;;;22.10;77.40;;;;;;5925078;29;89244;-68
2022/05/05 12:45:20;;;;;;;2.42;2.22;;;22.10;77.40;;;;;;5912695;29;89063;-68
2022/05/05 12:48:22;;;;;;;2.10;2.00;;;22.10;77.40;;;;;;5904327;29;89422;-69
2022/05/05 12:51:31;;;;;;;2.17;1.98;;;22.10;77.40;;;;;;5923657;29;87259;-68
2022/05/05 13:01:24;;;;;;;2.30;2.20;;;22.20;77.60;;;;;;5907392;29;88003;-68
2022/05/05 13:04:26;;;;;;;2.33;2.13;;;22.20;77.60;;;;;;5914401;29;89099;-70
2022/05/05 13:07:28;;;;;;;2.35;2.15;;;22.20;77.60;;;;;;5914307;29;89039;-69
2022/05/05 13:10:30;;;;;;;2.30;2.10;;;22.20;77.60;;;;;;5914028;29;88956;-68
2022/05/05 13:13:33;;;;;;;2.17;1.98;;;22.20;77.50;;;;;;5914321;29;89168;-69
2022/05/05 13:16:36;;;;;;;2.50;2.30;;;22.20;77.50;;;;;;5913929;29;89432;-69
2022/05/05 13:19:38;;;;;;;2.42;2.22;;;22.20;77.40;;;;;;5924739;29;89037;-69
2022/05/05 13:22:40;;;;;;;2.20;2.00;;;22.20;77.40;;;;;;5915981;29;88293;-69
2022/05/05 13:25:43;;;;;;;2.17;2.00;;;22.20;77.50;;;;;;5913995;29;89116;-69
2022/05/05 13:28:47;;;;;;;2.58;2.38;;;22.20;77.50;;;;;;5920003;29;88009;-68
2022/05/05 13:31:49;;;;;;;2.17;2.05;;;22.20;77.50;;;;;;5923501;29;90182;-69
2022/05/05 13:34:52;;;;;;;2.20;2.00;;;22.10;77.40;;;;;;5908015;29;89069;-69
2022/05/05 13:37:58;;;;;;;1.98;1.88;;;22.20;77.50;;;;;;5905413;29;89108;-68
2022/05/05 13:41:00;;;;;;;2.17;1.90;;;22.20;77.50;;;;;;5909748;29;89410;-69
2022/05/05 13:44:04;;;;;;;2.00;1.90;;;22.20;77.60;;;;;;5913136;29;89379;-69
2022/05/05 13:47:06;;;;;;;2.13;2.03;;;22.20;77.60;;;;;;5914205;29;89095;-69
2022/05/05 13:50:10;;;;;;;5.28;2.65;;;22.10;77.50;;;;;;5924362;29;87975;-69
2022/05/05 13:53:12;;;;;;;2.22;2.03;;;22.20;79.40;;;;;;5933580;29;87255;-69
2022/05/05 13:56:14;;;;;;;2.30;2.10;;;22.20;78.90;;;;;;5917772;29;89493;-69
2022/05/05 13:59:17;;;;;;;3.55;2.10;;;22.20;78.80;;;;;;5912362;29;89121;-69
2022/05/05 14:02:20;;;;;;;2.65;2.45;;;22.20;78.40;;;;;;5912939;29;90072;-70
2022/05/05 14:05:22;;;;;;;2.30;2.10;;;22.20;78.40;;;;;;5913355;29;89081;-70
2022/05/05 14:15:04;;;;;;;3.03;2.10;;;22.20;78.10;;;;;;5913613;29;87311;-70
2022/05/05 14:18:07;;;;;;;3.67;2.50;;;22.20;78.70;;;;;;5914936;29;89144;-71
2022/05/05 14:21:09;;;;;;;2.53;2.10;;;22.20;79.40;;;;;;5919218;29;88011;-70
2022/05/05 14:24:11;;;;;;;2.13;1.92;;;22.20;79.20;;;;;;5918486;29;88297;-70
2022/05/05 14:27:13;;;;;;;2.60;2.15;;;22.20;79.10;;;;;;5909206;29;89154;-69
2022/05/05 14:30:16;;;;;;;2.00;1.90;;;22.20;78.80;;;;;;5909870;29;90526;-70
2022/05/05 14:33:20;;;;;;;3.30;1.90;;;22.20;78.90;;;;;;5919604;29;90134;-70
2022/05/05 14:36:24;;;;;;;2.05;1.85;;;22.20;78.60;;;;;;5920495;29;89155;-71
2022/05/05 14:39:26;;;;;;;2.42;2.22;;;22.20;78.60;;;;;;5909138;29;89222;-71
2022/05/05 14:42:28;;;;;;;2.20;2.00;;;22.20;78.60;;;;;;5921125;29;89378;-71
2022/05/05 14:45:33;;;;;;;2.13;1.85;;;22.20;78.60;;;;;;5906531;29;89243;-71
2022/05/05 14:48:35;;;;;;;2.42;2.20;;;22.20;78.50;;;;;;5913761;29;89182;-71
2022/05/05 14:51:37;;;;;;;2.28;1.98;;;22.20;78.60;;;;;;5920635;29;89078;-71
2022/05/05 14:54:40;;;;;;;3.25;2.10;;;22.20;78.70;;;;;;5918310;29;88299;-70
2022/05/05 14:57:45;;;;;;;3.45;1.98;;;22.20;78.80;;;;;;5921026;29;89311;-70
2022/05/05 15:00:48;;;;;;;2.10;2.00;;;22.20;78.80;;;;;;5924257;29;89143;-70
2022/05/05 15:03:51;;;;;;;3.05;1.92;;;22.20;78.80;;;;;;5923904;29;90071;-70
2022/05/05 15:06:53;;;;;;;2.30;2.10;;;22.20;78.60;;;;;;5912670;29;89029;-70
2022/05/05 15:09:55;;;;;;;2.35;2.15;;;22.20;78.60;;;;;;5912512;29;89218;-71
2022/05/05 15:12:57;;;;;;;2.60;2.40;;;22.20;78.60;;;;;;5907866;29;89106;-70
2022/05/05 15:16:00;;;;;;;3.45;2.20;;;22.20;78.80;;;;;;5914231;29;89112;-69
2022/05/05 15:19:03;;;;;;;2.05;1.95;;;22.20;78.80;;;;;;5925354;29;89140;-71
2022/05/05 15:22:06;;;;;;;2.88;2.00;;;22.20;78.90;;;;;;5926212;29;89106;-70
2022/05/05 15:25:11;;;;;;;2.28;2.08;;;22.20;78.90;;;;;;5916209;29;88249;-70
2022/05/05 15:28:13;;;;;;;2.33;2.10;;;22.20;78.80;;;;;;5916125;29;88059;-68
2022/05/05 15:31:17;;;;;;;2.22;1.90;;;22.20;78.80;;;;;;5924555;29;89321;-69
2022/05/05 15:34:19;;;;;;;2.33;2.10;;;22.20;78.80;;;;;;5925566;29;90378;-71
2022/05/05 15:37:21;;;;;;;2.17;1.95;;;22.20;78.60;;;;;;5907494;29;89409;-69
2022/05/05 15:40:25;;;;;;;4.80;1.90;;;22.20;78.70;;;;;;5908935;29;89099;-70
2022/05/05 15:43:27;;;;;;;2.00;1.90;;;22.20;78.70;;;;;;5926312;29;89283;-70
2022/05/05 15:46:31;;;;;;;2.00;1.90;;;22.20;78.70;;;;;;5922714;29;89047;-70
2022/05/05 15:49:33;;;;;;;2.05;1.95;;;22.20;78.80;;;;;;5915247;29;89459;-70
2022/05/05 15:52:37;;;;;;;1.83;1.73;;;22.20;78.80;;;;;;5928766;29;89350;-69
2022/05/05 15:55:40;;;;;;;1.90;1.80;;;22.20;78.80;;;;;;5914355;29;88421;-70
2022/05/05 15:58:42;;;;;;;2.20;1.92;;;22.20;78.60;;;;;;5915080;29;89374;-70
2022/05/05 16:01:45;;;;;;;2.20;2.00;;;22.20;78.60;;;;;;5914870;29;89142;-70
2022/05/05 16:04:47;;;;;;;1.77;1.67;;;22.20;78.60;;;;;;5914658;29;89144;-70
2022/05/05 16:07:50;;;;;;;2.03;1.90;;;22.20;78.40;;;;;;5903025;29;88025;-70
2022/05/05 16:10:52;;;;;;;2.08;1.83;;;22.20;78.60;;;;;;5914700;29;88939;-71
2022/05/05 16:13:54;;;;;;;2.00;1.90;;;22.20;78.80;;;;;;5915452;29;89183;-70
2022/05/05 16:16:59;;;;;;;2.17;1.90;;;22.20;78.90;;;;;;5910672;29;89064;-70
2022/05/05 16:20:04;;;;;;;2.05;1.90;;;22.20;78.70;;;;;;5913551;29;89156;-70
2022/05/05 16:23:06;;;;;;;1.83;1.73;;;22.20;78.80;;;;;;5913669;29;89351;-71
2022/05/05 16:32:50;;;;;;;2.00;1.90;;;22.20;78.60;;;;;;5902911;29;87204;-70
2022/05/05 16:35:54;;;;;;;2.25;1.92;;;22.20;78.40;;;;;;5913795;29;89711;-70
2022/05/05 16:38:56;;;;;;;1.85;1.75;;;22.20;78.60;;;;;;5913870;29;89373;-71
2022/05/05 16:41:59;;;;;;;2.47;1.90;;;22.20;78.30;;;;;;5902783;29;89440;-70
2022/05/05 16:45:01;;;;;;;1.60;1.50;;;22.20;78.30;;;;;;5923238;29;89073;-71
2022/05/05 16:48:05;;;;;;;1.88;1.77;;;22.20;78.30;;;;;;5913069;29;88999;-70
2022/05/05 16:51:10;;;;;;;1.80;1.70;;;22.20;78.30;;;;;;5922940;29;88001;-72
2022/05/05 16:54:14;;;;;;;1.75;1.65;;;22.20;78.30;;;;;;5912951;29;89096;-70
2022/05/05 16:57:16;;;;;;;2.22;2.00;;;22.20;78.30;;;;;;5902444;29;88130;-71
2022/05/05 17:00:18;;;;;;;1.80;1.70;;;22.20;78.30;;;;;;5913993;29;89107;-71
2022/05/05 17:03:22;;;;;;;2.40;1.88;;;22.20;78.30;;;;;;5914337;29;89118;-71
2022/05/05 17:06:25;;;;;;;1.75;1.65;;;22.20;78.30;;;;;;5912683;29;90081;-70
2022/05/05 17:09:27;;;;;;;1.80;1.70;;;22.20;78.20;;;;;;5913797;29;88835;-73